Time;durP1;ratioP1;P1;durP2;ratioP2;P2;SDS_P1;SDS_P2;PMS_P1;PMS_P2;Temp;Humidity;BMP_temperature;BMP_pressure;BME280_temperature;BME280_humidity;BME280_pressure;Samples;Min_cycle;Max_cycle;Signal;HPM_P1;HPM_P2
2024/02/12 00:00:36;;;;;;;;;;;;;;;29.55;23.53;96194.41;5102822;27;19919;-79
2024/02/12 00:03:02;;;;;;;;;;;;;;;29.40;24.10;96199.59;5101737;27;19920;-79
2024/02/12 00:05:29;;;;;;;;;;;;;;;28.54;25.15;96195.56;5110085;27;20015;-79
2024/02/12 00:07:55;;;;;;;;;;;;;;;28.92;24.64;96196.97;5107965;27;19920;-79
2024/02/12 00:10:22;;;;;;;;;;;;;;;29.34;24.25;96202.41;5105057;27;19989;-79
2024/02/12 00:12:51;;;;;;;;;;;;;;;29.53;23.93;96199.03;5103179;27;19920;-79
2024/02/12 00:15:21;;;;;;;;;;;;;;;29.56;24.17;96207.28;5115020;27;19926;-79
2024/02/12 00:17:47;;;;;;;;;;;;;;;29.25;24.49;96201.91;5098483;27;19927;-79
2024/02/12 00:20:14;;;;;;;;;;;;;;;29.32;24.19;96209.88;5102427;28;19942;-79
2024/02/12 00:22:40;;;;;;;;;;;;;;;29.37;24.38;96212.69;5097399;28;19930;-79
2024/02/12 00:25:07;;;;;;;;;;;;;;;29.41;24.14;96218.84;5107584;27;19928;-79
2024/02/12 00:27:34;;;;;;;;;;;;;;;29.25;24.53;96224.50;5112886;27;20296;-79
2024/02/12 00:30:00;;;;;;;;;;;;;;;29.17;24.07;96227.03;5107296;28;20339;-79
2024/02/12 00:32:26;;;;;;;;;;;;;;;29.31;24.18;96228.13;5096631;27;20400;-79
2024/02/12 00:34:54;;;;;;;;;;;;;;;29.31;24.33;96234.53;5081706;28;20007;-79
2024/02/12 00:37:20;;;;;;;;;;;;;;;29.34;24.09;96230.69;5109423;27;20439;-79
2024/02/12 00:39:46;;;;;;;;;;;;;;;29.23;24.44;96235.56;5105404;27;19927;-80
2024/02/12 00:42:12;;;;;;;;;;;;;;;27.87;26.29;96242.47;5101650;28;20376;-79
2024/02/12 00:44:42;;;;;;;;;;;;;;;27.63;26.50;96238.50;5101100;28;19920;-80
2024/02/12 00:47:08;;;;;;;;;;;;;;;27.30;27.07;96233.34;5085305;28;20007;-80
2024/02/12 00:49:39;;;;;;;;;;;;;;;27.71;26.51;96243.16;5087760;28;20346;-79
2024/02/12 00:52:07;;;;;;;;;;;;;;;27.48;26.84;96246.31;5088761;28;19928;-80
2024/02/12 00:54:35;;;;;;;;;;;;;;;27.44;26.79;96245.78;5086025;28;19970;-79
2024/02/12 00:57:01;;;;;;;;;;;;;;;26.83;27.82;96248.78;5080950;28;19952;-79
2024/02/12 00:59:27;;;;;;;;;;;;;;;27.07;27.30;96245.69;5080165;28;20408;-79
2024/02/12 01:01:53;;;;;;;;;;;;;;;25.93;28.91;96246.09;5082823;28;19966;-79
2024/02/12 01:04:19;;;;;;;;;;;;;;;25.49;29.52;96250.31;5083361;28;19955;-79
2024/02/12 01:06:45;;;;;;;;;;;;;;;25.54;29.33;96244.00;5085721;28;21326;-79
2024/02/12 01:09:12;;;;;;;;;;;;;;;24.17;31.93;96247.38;5080066;28;19923;-80
2024/02/12 01:11:38;;;;;;;;;;;;;;;24.55;31.28;96236.13;5086353;28;19920;-79
2024/02/12 01:14:05;;;;;;;;;;;;;;;24.43;31.30;96247.63;5077568;28;19923;-79
2024/02/12 01:16:32;;;;;;;;;;;;;;;23.76;33.49;96248.22;5083071;28;19947;-79
2024/02/12 01:18:58;;;;;;;;;;;;;;;25.04;30.40;96249.53;5081882;28;19927;-79
2024/02/12 01:21:25;;;;;;;;;;;;;;;25.92;28.84;96249.41;5081683;28;20386;-79
2024/02/12 01:23:53;;;;;;;;;;;;;;;25.91;28.76;96248.63;5085692;28;20085;-79
2024/02/12 01:26:20;;;;;;;;;;;;;;;25.68;29.02;96260.84;5080326;28;19947;-79
2024/02/12 01:28:46;;;;;;;;;;;;;;;26.05;28.58;96261.88;5083738;28;19921;-79
2024/02/12 01:31:16;;;;;;;;;;;;;;;24.98;30.11;96254.31;5086655;28;19920;-79
2024/02/12 01:33:42;;;;;;;;;;;;;;;25.65;28.87;96261.06;5087026;28;19973;-79
2024/02/12 01:36:08;;;;;;;;;;;;;;;26.11;28.29;96258.41;5084911;28;20408;-79
2024/02/12 01:38:35;;;;;;;;;;;;;;;25.24;29.43;96269.31;5076134;28;19921;-79
2024/02/12 01:41:02;;;;;;;;;;;;;;;25.35;29.26;96263.09;5087806;28;20373;-79
2024/02/12 01:43:31;;;;;;;;;;;;;;;26.38;27.76;96264.38;5092891;28;19974;-79
2024/02/12 01:45:59;;;;;;;;;;;;;;;26.94;26.60;96271.41;5110568;27;19920;-79
2024/02/12 01:48:25;;;;;;;;;;;;;;;27.80;25.61;96267.56;5104058;27;20002;-79
2024/02/12 01:50:52;;;;;;;;;;;;;;;28.22;24.80;96266.78;5109242;27;19924;-79
2024/02/12 01:53:18;;;;;;;;;;;;;;;28.22;24.87;96263.97;5112723;27;19919;-79
2024/02/12 01:55:47;;;;;;;;;;;;;;;27.98;25.00;96267.19;5106253;27;19924;-79
2024/02/12 01:58:14;;;;;;;;;;;;;;;27.94;25.01;96269.44;5110832;28;20300;-79
2024/02/12 02:00:44;;;;;;;;;;;;;;;27.92;25.21;96272.00;5091320;28;19931;-79
2024/02/12 02:03:11;;;;;;;;;;;;;;;27.85;24.88;96276.06;5107552;27;20006;-79
2024/02/12 02:05:37;;;;;;;;;;;;;;;28.16;24.63;96275.25;5109738;27;20408;-79
2024/02/12 02:08:03;;;;;;;;;;;;;;;28.58;23.98;96269.53;5089116;28;19989;-79
2024/02/12 02:10:30;;;;;;;;;;;;;;;28.77;23.52;96272.72;5101885;28;20521;-79
2024/02/12 02:12:59;;;;;;;;;;;;;;;28.42;23.68;96266.66;5100021;28;20003;-79
2024/02/12 02:15:26;;;;;;;;;;;;;;;28.63;23.30;96270.88;5106028;27;19920;-79
2024/02/12 02:17:52;;;;;;;;;;;;;;;28.61;23.19;96270.63;5108260;28;19920;-79
2024/02/12 02:20:20;;;;;;;;;;;;;;;28.43;23.11;96276.66;5110340;28;19923;-79
2024/02/12 02:22:47;;;;;;;;;;;;;;;27.48;24.19;96283.72;5103612;27;20382;-79
2024/02/12 02:25:13;;;;;;;;;;;;;;;27.95;23.48;96280.25;5108666;28;20010;-79
2024/02/12 02:27:39;;;;;;;;;;;;;;;28.10;23.24;96282.91;5104910;27;19959;-79
2024/02/12 02:30:07;;;;;;;;;;;;;;;27.98;23.11;96281.28;5106749;28;19920;-79
2024/02/12 02:32:35;;;;;;;;;;;;;;;27.99;23.03;96286.44;5104286;28;19916;-79
2024/02/12 02:35:01;;;;;;;;;;;;;;;28.26;22.92;96282.25;5109902;28;19915;-79
2024/02/12 02:37:28;;;;;;;;;;;;;;;28.02;23.25;96285.44;5102337;27;19965;-79
2024/02/12 02:39:54;;;;;;;;;;;;;;;28.33;22.79;96275.34;5103044;27;20007;-79
2024/02/12 02:42:20;;;;;;;;;;;;;;;28.05;22.98;96287.22;5098632;28;20377;-79
2024/02/12 02:44:48;;;;;;;;;;;;;;;27.94;23.35;96287.16;5108490;28;19965;-79
2024/02/12 02:47:14;;;;;;;;;;;;;;;28.12;23.09;96288.84;5111380;28;19924;-79
2024/02/12 02:49:41;;;;;;;;;;;;;;;28.34;22.66;96276.88;5098875;28;19927;-79
2024/02/12 02:52:07;;;;;;;;;;;;;;;28.40;22.45;96284.09;5099873;28;19924;-80
2024/02/12 02:54:33;;;;;;;;;;;;;;;28.04;22.73;96284.94;5106784;28;19931;-79
2024/02/12 02:57:00;;;;;;;;;;;;;;;28.07;22.63;96292.41;5097554;27;19924;-79
2024/02/12 02:59:26;;;;;;;;;;;;;;;28.37;22.77;96284.34;5101519;28;19920;-79
2024/02/12 03:01:52;;;;;;;;;;;;;;;28.26;22.62;96282.25;5098604;28;20312;-79
2024/02/12 03:04:18;;;;;;;;;;;;;;;27.96;22.84;96297.91;5103715;28;19934;-79
2024/02/12 03:06:44;;;;;;;;;;;;;;;28.23;22.33;96294.53;5104010;28;20373;-79
2024/02/12 03:09:10;;;;;;;;;;;;;;;28.13;22.46;96301.66;5097225;28;19923;-79
2024/02/12 03:11:40;;;;;;;;;;;;;;;27.78;22.90;96304.72;5109325;28;19920;-79
2024/02/12 03:14:09;;;;;;;;;;;;;;;27.79;22.88;96300.66;5109474;28;19916;-79
2024/02/12 03:16:35;;;;;;;;;;;;;;;27.39;23.40;96304.44;5105751;28;19919;-79
2024/02/12 03:19:01;;;;;;;;;;;;;;;27.42;22.93;96309.03;5104080;28;19927;-79
2024/02/12 03:21:27;;;;;;;;;;;;;;;27.79;22.89;96309.09;5106626;28;19961;-79
2024/02/12 03:23:53;;;;;;;;;;;;;;;28.16;22.48;96305.53;5107225;28;19928;-79
2024/02/12 03:26:20;;;;;;;;;;;;;;;28.56;22.04;96313.69;5104793;28;20331;-79
2024/02/12 03:28:49;;;;;;;;;;;;;;;28.71;21.73;96322.75;5101595;28;19958;-79
2024/02/12 03:31:15;;;;;;;;;;;;;;;28.84;21.62;96325.13;5105894;28;20001;-79
2024/02/12 03:33:42;;;;;;;;;;;;;;;28.83;21.80;96320.75;5103071;28;19939;-79
2024/02/12 03:36:09;;;;;;;;;;;;;;;28.77;21.92;96329.22;5109928;28;19919;-79
2024/02/12 03:38:37;;;;;;;;;;;;;;;28.71;22.26;96334.81;5102178;28;19920;-79
2024/02/12 03:41:04;;;;;;;;;;;;;;;28.75;22.20;96332.53;5100250;28;19927;-79
2024/02/12 03:43:31;;;;;;;;;;;;;;;28.76;22.05;96330.47;5099075;28;19928;-79
2024/02/12 03:45:57;;;;;;;;;;;;;;;28.70;22.12;96332.53;5104559;28;19926;-79
2024/02/12 04:02:10;;;;;;;;;;;;;;;28.79;21.70;96346.44;5093509;28;19946;-79
2024/02/12 04:04:38;;;;;;;;;;;;;;;28.85;21.73;96352.06;5104414;27;19931;-79
2024/02/12 04:07:04;;;;;;;;;;;;;;;28.83;21.81;96352.59;5111029;28;19920;-79
2024/02/12 04:09:31;;;;;;;;;;;;;;;28.90;21.71;96349.28;5107627;28;20481;-79
2024/02/12 04:11:57;;;;;;;;;;;;;;;29.01;21.54;96346.50;5106475;28;19939;-79
2024/02/12 04:14:23;;;;;;;;;;;;;;;29.11;21.26;96349.84;5108576;28;19966;-79
2024/02/12 04:16:52;;;;;;;;;;;;;;;29.08;21.44;96346.00;5111491;28;19927;-79
2024/02/12 04:19:19;;;;;;;;;;;;;;;28.85;21.63;96347.22;5105965;27;20434;-79
2024/02/12 04:21:45;;;;;;;;;;;;;;;28.96;21.77;96347.25;5114819;27;19920;-79
2024/02/12 04:24:11;;;;;;;;;;;;;;;29.04;21.34;96347.53;5104889;27;20377;-79
2024/02/12 04:26:37;;;;;;;;;;;;;;;29.01;21.62;96351.38;5102252;28;20285;-79
2024/02/12 04:29:07;;;;;;;;;;;;;;;28.93;21.43;96351.09;5107483;28;20014;-79
2024/02/12 04:31:35;;;;;;;;;;;;;;;29.02;21.62;96347.25;5107510;27;19998;-79
2024/02/12 04:34:02;;;;;;;;;;;;;;;29.13;21.32;96358.59;5111736;27;19920;-79
2024/02/12 04:36:31;;;;;;;;;;;;;;;28.61;22.04;96361.00;5101326;27;19920;-79
2024/02/12 04:38:57;;;;;;;;;;;;;;;28.48;22.19;96354.97;5114983;27;20003;-79
2024/02/12 04:41:24;;;;;;;;;;;;;;;28.44;22.28;96357.25;5110721;27;20380;-79
2024/02/12 04:43:50;;;;;;;;;;;;;;;28.50;22.31;96356.00;5095569;28;20393;-79
2024/02/12 04:46:16;;;;;;;;;;;;;;;28.64;22.02;96357.13;5093755;28;19927;-79
2024/02/12 04:48:42;;;;;;;;;;;;;;;28.75;22.14;96363.59;5095502;28;20006;-79
2024/02/12 04:51:08;;;;;;;;;;;;;;;28.78;22.02;96364.63;5090742;28;19920;-79
2024/02/12 04:53:36;;;;;;;;;;;;;;;28.75;21.77;96363.59;5083422;28;19921;-79
2024/02/12 04:56:04;;;;;;;;;;;;;;;28.38;22.16;96367.75;5089352;28;20373;-79
2024/02/12 04:58:30;;;;;;;;;;;;;;;28.26;22.42;96368.97;5082689;28;20062;-79
2024/02/12 05:00:57;;;;;;;;;;;;;;;28.32;22.32;96369.75;5084334;28;19924;-79
2024/02/12 05:03:23;;;;;;;;;;;;;;;28.32;22.32;96367.72;5085980;28;20015;-79
2024/02/12 05:05:49;;;;;;;;;;;;;;;28.30;22.62;96369.50;5081820;28;20009;-79
2024/02/12 05:08:16;;;;;;;;;;;;;;;28.47;22.43;96370.38;5088165;28;19936;-79
2024/02/12 05:10:42;;;;;;;;;;;;;;;28.44;22.40;96383.44;5079357;28;19920;-79
2024/02/12 05:13:08;;;;;;;;;;;;;;;28.39;22.59;96375.72;5084447;28;19916;-79
2024/02/12 05:15:35;;;;;;;;;;;;;;;28.32;22.40;96379.00;5079491;28;19986;-79
2024/02/12 05:22:32;;;;;;;;;;;;;;;28.53;22.09;96374.00;5089911;28;19954;-79
2024/02/12 05:23:38;;;;;;;;;;;;;;;28.37;22.60;96380.31;5094614;28;20015;-79
2024/02/12 05:26:04;;;;;;;;;;;;;;;28.36;22.61;96388.00;5088550;28;19920;-79
2024/02/12 05:28:31;;;;;;;;;;;;;;;28.13;22.82;96391.19;5094324;28;19924;-79
2024/02/12 05:30:58;;;;;;;;;;;;;;;28.31;22.54;96385.91;5095434;28;20292;-79
2024/02/12 05:33:25;;;;;;;;;;;;;;;28.45;22.21;96393.44;5081820;28;19924;-79
2024/02/12 05:35:52;;;;;;;;;;;;;;;28.75;21.76;96394.66;5088977;28;19920;-79
2024/02/12 05:38:18;;;;;;;;;;;;;;;29.01;21.46;96397.34;5088462;28;19928;-79
2024/02/12 05:40:44;;;;;;;;;;;;;;;29.12;21.15;96393.81;5086456;28;19916;-79
2024/02/12 05:43:10;;;;;;;;;;;;;;;29.09;21.20;96398.44;5091697;28;19924;-79
2024/02/12 05:45:37;;;;;;;;;;;;;;;28.86;21.46;96407.31;5114230;27;19920;-79
2024/02/12 05:48:04;;;;;;;;;;;;;;;28.94;21.58;96402.75;5106527;28;19935;-79
2024/02/12 05:50:30;;;;;;;;;;;;;;;29.01;21.41;96403.00;5098912;28;19927;-79
2024/02/12 05:52:56;;;;;;;;;;;;;;;29.14;21.50;96394.06;5110248;27;20274;-79
2024/02/12 05:55:22;;;;;;;;;;;;;;;29.25;21.18;96400.56;5077784;28;19970;-79
2024/02/12 05:57:48;;;;;;;;;;;;;;;29.24;21.20;96407.47;5097689;28;20289;-79
2024/02/12 06:00:14;;;;;;;;;;;;;;;29.22;21.79;96412.88;5109471;27;19920;-79
2024/02/12 06:02:41;;;;;;;;;;;;;;;28.95;22.08;96416.34;5086814;28;19931;-79
2024/02/12 06:05:07;;;;;;;;;;;;;;;29.02;21.87;96424.34;5105035;27;19916;-79
2024/02/12 06:07:33;;;;;;;;;;;;;;;29.04;21.82;96423.81;5102279;27;19927;-79
2024/02/12 06:09:59;;;;;;;;;;;;;;;28.96;21.92;96425.59;5105422;27;19916;-79
2024/02/12 06:12:25;;;;;;;;;;;;;;;28.80;22.10;96429.88;5104713;27;20411;-79
2024/02/12 06:14:51;;;;;;;;;;;;;;;28.81;22.21;96431.44;5111593;27;19965;-79
2024/02/12 06:17:18;;;;;;;;;;;;;;;28.88;21.65;96436.59;5099858;27;19920;-79
2024/02/12 06:19:44;;;;;;;;;;;;;;;28.92;21.81;96439.97;5104564;27;19981;-79
2024/02/12 06:22:11;;;;;;;;;;;;;;;28.93;21.87;96447.16;5101644;28;19922;-80
2024/02/12 06:24:37;;;;;;;;;;;;;;;28.82;22.05;96455.59;5102247;27;19985;-79
2024/02/12 06:27:03;;;;;;;;;;;;;;;28.88;21.90;96452.78;5102605;27;19915;-79
2024/02/12 06:29:29;;;;;;;;;;;;;;;28.83;22.02;96451.47;5086736;28;19916;-79
2024/02/12 06:31:55;;;;;;;;;;;;;;;28.59;22.35;96451.09;5104008;27;19927;-79
2024/02/12 06:34:21;;;;;;;;;;;;;;;28.74;22.32;96451.69;5086104;28;19916;-79
2024/02/12 06:36:47;;;;;;;;;;;;;;;28.58;22.44;96449.50;5105459;27;19923;-80
2024/02/12 06:39:13;;;;;;;;;;;;;;;28.81;22.27;96456.09;5098845;27;19920;-79
2024/02/12 06:41:44;;;;;;;;;;;;;;;28.98;22.31;96454.91;5100665;28;20416;-80
2024/02/12 06:44:13;;;;;;;;;;;;;;;29.01;22.71;96462.34;5085938;28;20409;-79
2024/02/12 06:46:43;;;;;;;;;;;;;;;29.06;22.32;96461.59;5094092;28;19927;-79
2024/02/12 06:49:10;;;;;;;;;;;;;;;29.33;21.97;96457.41;5098102;28;19927;-79
2024/02/12 06:51:42;;;;;;;;;;;;;;;29.19;22.69;96461.19;5101197;28;19927;-79
2024/02/12 06:54:08;;;;;;;;;;;;;;;29.32;22.42;96467.94;5099760;28;20373;-79
2024/02/12 06:56:39;;;;;;;;;;;;;;;29.42;21.80;96463.59;5093562;28;19986;-79
2024/02/12 06:59:05;;;;;;;;;;;;;;;29.40;21.88;96462.56;5093834;28;19920;-80
2024/02/12 07:01:31;;;;;;;;;;;;;;;29.57;21.37;96462.63;5096894;28;19926;-80
2024/02/12 07:03:57;;;;;;;;;;;;;;;29.40;21.68;96462.56;5093575;28;19924;-80
2024/02/12 07:06:23;;;;;;;;;;;;;;;29.24;21.95;96468.94;5127809;27;19926;-79
2024/02/12 07:08:49;;;;;;;;;;;;;;;29.31;21.87;96474.09;5105723;28;19919;-80
2024/02/12 07:11:15;;;;;;;;;;;;;;;29.42;22.22;96474.91;5101078;28;19941;-80
2024/02/12 07:13:41;;;;;;;;;;;;;;;29.63;21.74;96472.66;5107612;28;19973;-80
2024/02/12 07:16:08;;;;;;;;;;;;;;;29.86;21.66;96468.63;5107792;28;19974;-80
2024/02/12 07:18:34;;;;;;;;;;;;;;;29.89;21.47;96475.31;5104160;28;19920;-80
2024/02/12 07:21:00;;;;;;;;;;;;;;;29.90;21.72;96471.19;5102767;28;19924;-80
2024/02/12 07:23:26;;;;;;;;;;;;;;;29.84;20.97;96474.03;5107923;28;19916;-80
2024/02/12 07:25:52;;;;;;;;;;;;;;;29.83;21.49;96478.13;5103049;28;19967;-80
2024/02/12 07:28:18;;;;;;;;;;;;;;;29.90;21.43;96479.66;5093322;28;19954;-80
2024/02/12 07:30:45;;;;;;;;;;;;;;;29.78;21.66;96492.28;5104613;28;19969;-79
2024/02/12 07:33:11;;;;;;;;;;;;;;;29.71;21.66;96487.84;5110552;28;19920;-80
2024/02/12 07:35:37;;;;;;;;;;;;;;;29.70;21.62;96491.19;5098227;28;19924;-80
2024/02/12 07:38:05;;;;;;;;;;;;;;;29.62;22.09;96490.13;5113214;28;19916;-80
2024/02/12 07:40:33;;;;;;;;;;;;;;;29.97;21.95;96493.31;5116324;28;19933;-80
2024/02/12 07:43:00;;;;;;;;;;;;;;;30.02;21.57;96496.16;5116676;28;19923;-80
2024/02/12 07:45:27;;;;;;;;;;;;;;;30.19;21.69;96498.25;5109117;27;20356;-80
2024/02/12 07:47:54;;;;;;;;;;;;;;;30.01;21.45;96488.94;5112796;27;19928;-80
2024/02/12 07:50:20;;;;;;;;;;;;;;;29.77;21.83;96493.53;5106255;28;19923;-80
2024/02/12 07:52:46;;;;;;;;;;;;;;;29.57;21.37;96496.56;5109505;27;20392;-80
2024/02/12 07:55:13;;;;;;;;;;;;;;;29.66;22.02;96504.81;5111414;27;19981;-80
2024/02/12 07:57:42;;;;;;;;;;;;;;;30.01;21.70;96499.53;5115246;28;19927;-80
2024/02/12 08:00:14;;;;;;;;;;;;;;;30.23;20.71;96502.38;5108635;27;20463;-80
2024/02/12 08:02:43;;;;;;;;;;;;;;;30.05;21.32;96505.69;5106729;28;20296;-80
2024/02/12 08:05:10;;;;;;;;;;;;;;;29.96;21.82;96515.22;5105225;27;19949;-80
2024/02/12 08:07:36;;;;;;;;;;;;;;;29.94;21.43;96522.66;5103779;27;19920;-80
2024/02/12 08:10:03;;;;;;;;;;;;;;;29.24;21.74;96514.91;5106729;27;19947;-80
2024/02/12 08:12:30;;;;;;;;;;;;;;;28.93;21.94;96526.28;5111896;27;20456;-80
2024/02/12 08:14:56;;;;;;;;;;;;;;;29.05;21.88;96527.91;5116097;28;19916;-81
2024/02/12 08:17:25;;;;;;;;;;;;;;;29.33;22.07;96536.56;5106686;27;20032;-81
2024/02/12 08:19:51;;;;;;;;;;;;;;;29.07;22.26;96531.00;5105011;28;20379;-81
2024/02/12 08:22:17;;;;;;;;;;;;;;;29.49;22.29;96538.69;5098268;28;20423;-82
2024/02/12 08:24:43;;;;;;;;;;;;;;;29.66;21.81;96536.72;5098789;27;19939;-80
2024/02/12 08:27:09;;;;;;;;;;;;;;;28.81;22.88;96533.13;5098304;27;19916;-80
2024/02/12 08:29:35;;;;;;;;;;;;;;;28.70;22.97;96538.72;5105311;27;19927;-81
2024/02/12 08:32:02;;;;;;;;;;;;;;;29.24;22.52;96534.69;5109262;27;19968;-80
2024/02/12 08:34:28;;;;;;;;;;;;;;;29.31;21.91;96541.97;5115066;28;19916;-80
2024/02/12 08:36:55;;;;;;;;;;;;;;;29.36;22.28;96538.34;5116034;28;19927;-80
2024/02/12 08:39:21;;;;;;;;;;;;;;;28.70;22.67;96547.19;5109963;28;19924;-80
2024/02/12 08:41:48;;;;;;;;;;;;;;;28.18;23.46;96552.09;5113377;28;19915;-80
2024/02/12 08:44:14;;;;;;;;;;;;;;;28.56;22.53;96550.91;5112203;28;19919;-80
2024/02/12 08:46:41;;;;;;;;;;;;;;;28.60;22.46;96548.66;5102855;28;19963;-80
2024/02/12 08:49:07;;;;;;;;;;;;;;;28.87;22.20;96556.53;5113910;28;19927;-80
2024/02/12 08:51:33;;;;;;;;;;;;;;;28.35;22.96;96549.44;5098206;28;19951;-80
2024/02/12 08:53:59;;;;;;;;;;;;;;;29.02;22.51;96557.16;5109302;27;19920;-80
2024/02/12 08:56:28;;;;;;;;;;;;;;;27.90;23.54;96551.00;5104204;28;19935;-80
2024/02/12 08:58:55;;;;;;;;;;;;;;;27.87;23.18;96560.44;5102224;28;19922;-80
2024/02/12 09:01:21;;;;;;;;;;;;;;;27.74;23.42;96560.84;5102442;28;20397;-80
2024/02/12 09:03:47;;;;;;;;;;;;;;;26.86;26.35;96570.91;5110613;27;19920;-81
2024/02/12 09:06:13;;;;;;;;;;;;;;;26.72;24.31;96575.28;5113803;28;20377;-80
2024/02/12 09:08:40;;;;;;;;;;;;;;;27.27;23.65;96566.88;5110978;27;19926;-80
2024/02/12 09:11:06;;;;;;;;;;;;;;;27.04;24.21;96568.63;5110648;28;20300;-80
2024/02/12 09:13:33;;;;;;;;;;;;;;;27.42;24.23;96576.09;5111381;28;19919;-80
2024/02/12 09:15:59;;;;;;;;;;;;;;;27.50;22.75;96574.38;5111528;28;19966;-80
2024/02/12 09:18:26;;;;;;;;;;;;;;;27.23;23.95;96575.56;5113668;28;19967;-80
2024/02/12 09:20:55;;;;;;;;;;;;;;;27.70;23.63;96580.00;5114143;28;19934;-80
2024/02/12 09:23:21;;;;;;;;;;;;;;;27.73;23.42;96584.66;5084540;28;19922;-80
2024/02/12 09:25:49;;;;;;;;;;;;;;;28.50;22.53;96576.25;5111678;28;19927;-80
2024/02/12 09:28:16;;;;;;;;;;;;;;;26.98;26.33;96597.97;5112867;28;19922;-80
2024/02/12 09:30:46;;;;;;;;;;;;;;;26.73;24.83;96597.28;5111837;28;19916;-80
2024/02/12 09:33:12;;;;;;;;;;;;;;;27.79;23.20;96596.81;5109855;28;19980;-80
2024/02/12 09:35:38;;;;;;;;;;;;;;;29.00;22.40;96598.50;5114412;28;20316;-80
2024/02/12 09:38:04;;;;;;;;;;;;;;;29.02;22.55;96601.59;5114646;28;19927;-81
2024/02/12 09:40:33;;;;;;;;;;;;;;;29.53;21.27;96604.25;5114247;28;20393;-81
2024/02/12 09:42:59;;;;;;;;;;;;;;;29.25;21.64;96609.00;5114252;28;20028;-80
2024/02/12 09:45:29;;;;;;;;;;;;;;;29.35;22.06;96613.16;5116115;27;19927;-80
2024/02/12 09:47:58;;;;;;;;;;;;;;;29.74;21.58;96619.03;5105496;28;19920;-81
2024/02/12 09:50:26;;;;;;;;;;;;;;;29.90;21.58;96619.13;5111760;28;20332;-81
2024/02/12 09:52:56;;;;;;;;;;;;;;;29.74;20.89;96613.34;5114204;28;19920;-81
2024/02/12 09:55:23;;;;;;;;;;;;;;;29.49;21.55;96622.75;5109465;28;20325;-81
2024/02/12 09:57:50;;;;;;;;;;;;;;;29.66;21.50;96617.97;5113721;28;19931;-81
2024/02/12 10:00:19;;;;;;;;;;;;;;;29.40;21.38;96618.09;5113903;28;19916;-80
2024/02/12 10:02:45;;;;;;;;;;;;;;;29.24;21.43;96622.34;5109085;28;19924;-80
2024/02/12 10:05:21;;;;;;;;;;;;;;;29.57;21.48;96624.59;5110313;28;19919;-81
2024/02/12 10:07:47;;;;;;;;;;;;;;;28.93;21.97;96628.00;5115756;27;19919;-81
2024/02/12 10:10:14;;;;;;;;;;;;;;;28.68;22.28;96623.19;5113887;28;19931;-80
2024/02/12 10:12:41;;;;;;;;;;;;;;;28.39;22.06;96618.50;5113599;28;19920;-81
2024/02/12 10:15:07;;;;;;;;;;;;;;;28.36;22.54;96618.72;5109878;28;20014;-81
2024/02/12 10:17:33;;;;;;;;;;;;;;;26.27;26.55;96623.63;5108992;28;20001;-81
2024/02/12 10:20:00;;;;;;;;;;;;;;;27.44;23.23;96623.50;5106211;28;19921;-81
2024/02/12 10:22:26;;;;;;;;;;;;;;;26.55;24.00;96625.66;5113196;28;19985;-81
2024/02/12 10:24:52;;;;;;;;;;;;;;;27.58;23.48;96620.63;5113844;28;20384;-81
2024/02/12 10:27:21;;;;;;;;;;;;;;;27.47;23.36;96623.28;5108168;28;19919;-81
2024/02/12 10:30:00;;;;;;;;;;;;;;;27.62;23.02;96623.22;5095307;28;19916;-80
2024/02/12 10:32:26;;;;;;;;;;;;;;;26.63;24.63;96621.19;5113391;28;20393;-81
2024/02/12 10:34:58;;;;;;;;;;;;;;;27.27;23.55;96620.41;5113634;28;19922;-81
2024/02/12 10:37:25;;;;;;;;;;;;;;;26.97;24.45;96627.41;5111491;28;19958;-81
2024/02/12 10:39:52;;;;;;;;;;;;;;;27.87;23.15;96620.47;5106645;28;19920;-81
2024/02/12 10:42:23;;;;;;;;;;;;;;;27.76;23.33;96625.22;5089812;28;19973;-80
2024/02/12 10:44:50;;;;;;;;;;;;;;;28.01;23.42;96627.34;5097128;28;19931;-81
2024/02/12 10:47:16;;;;;;;;;;;;;;;25.70;25.87;96635.00;5091646;28;20357;-81
2024/02/12 10:49:43;;;;;;;;;;;;;;;27.18;23.98;96624.16;5087774;28;19961;-81
2024/02/12 10:52:09;;;;;;;;;;;;;;;27.57;23.42;96621.88;5088645;28;19920;-81
2024/02/12 10:54:36;;;;;;;;;;;;;;;26.66;24.76;96628.66;5084234;28;19924;-81
2024/02/12 10:57:04;;;;;;;;;;;;;;;26.78;24.20;96623.25;5082851;28;19921;-81
2024/02/12 10:59:30;;;;;;;;;;;;;;;26.76;24.97;96625.78;5078935;28;19924;-81
2024/02/12 11:01:58;;;;;;;;;;;;;;;25.90;26.29;96631.56;5088007;28;19978;-81
2024/02/12 11:04:26;;;;;;;;;;;;;;;25.64;29.61;96627.72;5074672;28;19931;-80
2024/02/12 11:06:52;;;;;;;;;;;;;;;23.90;32.50;96634.34;5080772;28;19956;-81
2024/02/12 11:09:29;;;;;;;;;;;;;;;24.59;27.91;96634.44;5082315;28;19956;-81
2024/02/12 11:11:55;;;;;;;;;;;;;;;25.76;26.28;96638.72;5061031;28;20443;-81
2024/02/12 11:14:31;;;;;;;;;;;;;;;26.30;25.51;96629.03;5083501;28;20488;-80
2024/02/12 11:16:58;;;;;;;;;;;;;;;27.07;24.90;96626.03;5081513;28;19920;-80
2024/02/12 11:19:24;;;;;;;;;;;;;;;25.39;30.12;96635.31;5086418;28;19920;-80
2024/02/12 11:21:54;;;;;;;;;;;;;;;26.29;25.48;96624.69;5093128;28;20027;-81
2024/02/12 11:24:21;;;;;;;;;;;;;;;26.39;25.68;96637.41;5085160;28;19920;-81
2024/02/12 11:26:49;;;;;;;;;;;;;;;26.66;25.64;96633.50;5074431;28;20014;-80
2024/02/12 11:29:18;;;;;;;;;;;;;;;26.92;28.66;96625.25;5082114;28;19917;-80
2024/02/12 11:31:47;;;;;;;;;;;;;;;27.44;23.94;96627.09;5061205;28;19990;-80
2024/02/12 11:34:18;;;;;;;;;;;;;;;27.29;25.27;96626.34;5080861;28;19924;-81
2024/02/12 11:36:55;;;;;;;;;;;;;;;28.45;23.20;96622.16;5085063;28;19925;-80
2024/02/12 11:39:21;;;;;;;;;;;;;;;28.28;22.99;96628.91;5077930;28;19920;-80
2024/02/12 11:41:48;;;;;;;;;;;;;;;27.90;23.28;96633.59;5081757;28;20289;-81
2024/02/12 11:44:15;;;;;;;;;;;;;;;27.84;23.93;96626.34;5093396;28;19919;-81
2024/02/12 11:46:41;;;;;;;;;;;;;;;28.15;23.23;96622.84;5107862;28;19927;-81
2024/02/12 11:49:08;;;;;;;;;;;;;;;28.37;23.20;96623.88;5097989;28;20377;-80
2024/02/12 11:51:35;;;;;;;;;;;;;;;27.94;23.22;96624.91;5100164;28;19999;-81
2024/02/12 11:54:05;;;;;;;;;;;;;;;28.80;22.48;96630.47;5099321;28;20390;-81
2024/02/12 11:56:32;;;;;;;;;;;;;;;29.29;21.76;96632.91;5100211;28;19924;-81
2024/02/12 11:58:58;;;;;;;;;;;;;;;28.72;21.98;96632.97;5096455;28;19971;-81
2024/02/12 12:01:30;;;;;;;;;;;;;;;28.86;22.18;96628.47;5100139;28;20046;-81
2024/02/12 12:03:57;;;;;;;;;;;;;;;29.39;21.92;96628.63;5108467;28;19927;-81
2024/02/12 12:06:29;;;;;;;;;;;;;;;29.52;21.63;96642.34;5098651;28;19927;-81
2024/02/12 12:08:56;;;;;;;;;;;;;;;29.13;21.72;96633.56;5093711;28;20077;-81
2024/02/12 12:11:23;;;;;;;;;;;;;;;29.28;21.56;96636.25;5093850;28;20031;-80
2024/02/12 12:14:02;;;;;;;;;;;;;;;29.34;21.51;96640.66;5108088;28;20013;-81
2024/02/12 12:16:30;;;;;;;;;;;;;;;28.72;23.25;96632.97;5105718;28;19926;-81
2024/02/12 12:19:04;;;;;;;;;;;;;;;28.80;23.00;96632.53;5102381;28;19920;-81
2024/02/12 12:21:30;;;;;;;;;;;;;;;28.63;22.76;96632.38;5107021;28;19931;-81
2024/02/12 12:23:57;;;;;;;;;;;;;;;29.45;22.21;96637.16;5100183;28;19927;-81
2024/02/12 12:26:23;;;;;;;;;;;;;;;29.84;21.25;96632.50;5111483;27;19920;-81
2024/02/12 12:28:49;;;;;;;;;;;;;;;29.26;22.09;96630.34;5105644;27;19920;-81
2024/02/12 12:31:15;;;;;;;;;;;;;;;29.61;21.66;96630.81;5089034;28;20016;-82
2024/02/12 12:33:44;;;;;;;;;;;;;;;29.86;21.59;96635.59;5114850;28;20037;-82
2024/02/12 12:36:10;;;;;;;;;;;;;;;29.75;21.22;96637.56;5113209;28;19928;-82
2024/02/12 12:38:37;;;;;;;;;;;;;;;29.45;21.44;96644.84;5114287;28;19935;-82
2024/02/12 12:41:06;;;;;;;;;;;;;;;29.85;21.29;96638.94;5115410;28;19915;-82
2024/02/12 12:43:33;;;;;;;;;;;;;;;29.61;21.32;96638.50;5108586;28;20003;-82
2024/02/12 12:45:59;;;;;;;;;;;;;;;29.69;21.34;96642.41;5112239;28;19959;-82
2024/02/12 12:48:25;;;;;;;;;;;;;;;28.90;22.36;96640.31;5111073;28;20006;-82
2024/02/12 12:50:52;;;;;;;;;;;;;;;28.39;22.60;96641.09;5097525;28;19916;-83
2024/02/12 12:53:20;;;;;;;;;;;;;;;28.59;22.66;96638.25;5095705;28;19920;-82
2024/02/12 12:55:47;;;;;;;;;;;;;;;28.09;23.53;96639.75;5078730;28;20545;-83
2024/02/12 12:58:13;;;;;;;;;;;;;;;26.57;27.66;96639.25;5109731;28;20010;-83
2024/02/12 13:00:40;;;;;;;;;;;;;;;25.87;26.63;96647.38;5109814;28;20369;-83
2024/02/12 13:03:07;;;;;;;;;;;;;;;25.93;25.67;96644.66;5078268;27;19916;-82